Time;durP1;ratioP1;P1;durP2;ratioP2;P2;SDS_P1;SDS_P2;PMS_P1;PMS_P2;Temp;Humidity;BMP_temperature;BMP_pressure;BME280_temperature;BME280_humidity;BME280_pressure;Samples;Min_cycle;Max_cycle;Signal;HPM_P1;HPM_P2
2021/05/17 00:02:20;;;;;;;11.40;7.00;;;9.80;90.00;;;;;;4992523;28;20052;-63
2021/05/17 00:04:46;;;;;;;13.15;7.60;;;9.80;90.00;;;;;;4992572;28;20559;-62
2021/05/17 00:07:12;;;;;;;12.38;7.30;;;9.80;90.00;;;;;;4993641;28;20038;-63
2021/05/17 00:09:38;;;;;;;13.48;7.70;;;9.80;90.00;;;;;;4993212;28;20030;-62
2021/05/17 00:12:06;;;;;;;12.30;7.40;;;9.80;90.00;;;;;;4992291;28;20114;-62
2021/05/17 00:14:33;;;;;;;13.23;7.75;;;9.80;90.10;;;;;;4992834;28;20034;-62
2021/05/17 00:16:58;;;;;;;12.75;7.00;;;9.80;90.10;;;;;;4993190;28;20038;-62
2021/05/17 00:19:24;;;;;;;13.10;8.55;;;9.80;90.10;;;;;;4993638;28;20109;-62
2021/05/17 00:21:51;;;;;;;14.65;8.18;;;9.80;90.20;;;;;;4991644;28;20104;-63
2021/05/17 00:24:18;;;;;;;13.00;7.28;;;9.70;90.30;;;;;;4992850;28;20057;-63
2021/05/17 00:26:44;;;;;;;12.43;7.15;;;9.80;90.30;;;;;;4993121;28;20514;-63
2021/05/17 00:29:10;;;;;;;12.00;7.25;;;9.80;90.30;;;;;;4992805;28;20038;-63
2021/05/17 00:31:37;;;;;;;14.38;7.57;;;9.80;90.30;;;;;;4993152;28;20037;-62
2021/05/17 00:34:04;;;;;;;12.90;6.72;;;9.80;90.20;;;;;;4992027;28;20073;-63
2021/05/17 00:36:31;;;;;;;13.60;7.28;;;9.70;90.20;;;;;;4993053;28;20034;-62
2021/05/17 00:38:58;;;;;;;13.23;7.68;;;9.70;90.10;;;;;;4991657;28;20081;-62
2021/05/17 00:41:24;;;;;;;13.20;7.50;;;9.60;90.20;;;;;;4992499;28;20038;-62
2021/05/17 00:43:52;;;;;;;14.82;8.07;;;9.60;90.30;;;;;;4990451;28;20030;-62
2021/05/17 00:46:19;;;;;;;11.00;6.55;;;9.50;90.30;;;;;;4991561;28;20480;-62
2021/05/17 00:48:45;;;;;;;13.73;7.43;;;9.50;90.30;;;;;;4992453;28;20038;-62
2021/05/17 00:51:11;;;;;;;12.93;7.45;;;9.40;90.40;;;;;;4993020;28;20027;-62
2021/05/17 00:53:37;;;;;;;16.50;7.20;;;9.40;90.40;;;;;;4992048;28;20121;-62
2021/05/17 00:56:04;;;;;;;13.98;7.35;;;9.40;90.40;;;;;;4992301;28;20146;-62
2021/05/17 00:58:32;;;;;;;14.05;8.20;;;9.30;90.40;;;;;;4992850;28;20040;-62
2021/05/17 01:00:59;;;;;;;11.60;7.53;;;9.30;90.50;;;;;;4992150;28;20050;-62
2021/05/17 01:03:24;;;;;;;15.40;7.43;;;9.20;90.50;;;;;;4990731;28;20043;-62
2021/05/17 01:05:55;;;;;;;13.70;6.97;;;9.20;90.60;;;;;;4992262;28;20034;-62
2021/05/17 01:08:24;;;;;;;11.13;6.87;;;9.20;90.60;;;;;;4991118;28;20038;-62
2021/05/17 01:10:57;;;;;;;14.68;7.90;;;9.20;90.60;;;;;;4992596;28;20042;-63
2021/05/17 01:13:26;;;;;;;15.53;8.67;;;9.20;90.60;;;;;;4991618;28;20069;-62
2021/05/17 01:15:54;;;;;;;12.03;7.33;;;9.10;90.60;;;;;;4991121;28;20065;-63
2021/05/17 01:18:23;;;;;;;12.25;7.78;;;9.10;90.70;;;;;;4990499;28;20105;-63
2021/05/17 01:20:50;;;;;;;14.53;8.47;;;9.10;90.70;;;;;;4992488;28;20038;-62
2021/05/17 01:25:54;;;;;;;13.27;8.07;;;9.10;90.80;;;;;;4990992;28;20113;-62
2021/05/17 01:28:23;;;;;;;12.60;7.07;;;9.10;90.80;;;;;;4992073;28;20088;-62
2021/05/17 01:30:53;;;;;;;12.35;8.05;;;9.00;91.00;;;;;;4990689;28;20110;-63
2021/05/17 01:33:19;;;;;;;13.77;7.17;;;9.00;90.70;;;;;;4990332;28;20054;-62
2021/05/17 01:35:49;;;;;;;14.30;7.70;;;9.00;90.80;;;;;;4991533;28;20430;-62
2021/05/17 01:38:19;;;;;;;13.73;7.75;;;9.00;90.80;;;;;;4992097;28;20424;-62
2021/05/17 01:40:46;;;;;;;12.47;7.20;;;8.90;90.80;;;;;;4990510;28;20045;-63
2021/05/17 01:43:16;;;;;;;12.00;7.97;;;8.90;90.80;;;;;;4973813;28;20038;-62
2021/05/17 01:45:43;;;;;;;13.77;7.72;;;8.90;90.80;;;;;;4991560;28;20042;-62
2021/05/17 01:48:10;;;;;;;14.00;8.10;;;8.80;90.80;;;;;;4990400;28;20042;-62
2021/05/17 01:50:37;;;;;;;12.37;8.03;;;8.80;90.80;;;;;;4990579;28;20039;-62
2021/05/17 01:53:04;;;;;;;14.43;8.30;;;8.80;90.90;;;;;;4989638;28;20053;-62
2021/05/17 01:55:31;;;;;;;15.03;8.73;;;8.70;90.90;;;;;;4990601;28;20037;-62
2021/05/17 01:58:22;;;;;;;14.97;9.07;;;8.70;90.90;;;;;;4990394;28;20066;-62
2021/05/17 02:00:50;;;;;;;14.57;8.07;;;8.70;90.90;;;;;;4989171;28;20402;-62
2021/05/17 02:03:16;;;;;;;14.93;8.53;;;8.60;90.90;;;;;;4991277;28;20039;-62
2021/05/17 02:05:46;;;;;;;14.93;8.33;;;8.60;90.90;;;;;;4991353;28;20042;-62
2021/05/17 02:08:13;;;;;;;16.17;9.15;;;8.60;91.00;;;;;;4991787;28;20061;-62
2021/05/17 02:10:40;;;;;;;15.67;8.20;;;8.50;91.00;;;;;;4990427;28;20117;-62
2021/05/17 02:13:16;;;;;;;14.30;7.87;;;8.50;91.00;;;;;;4989176;28;20125;-62
2021/05/17 02:15:44;;;;;;;13.27;7.33;;;8.50;91.10;;;;;;4991734;28;20034;-62
2021/05/17 02:18:10;;;;;;;14.60;8.37;;;8.40;91.00;;;;;;4991131;28;20073;-62
2021/05/17 02:20:39;;;;;;;14.50;8.93;;;8.40;91.00;;;;;;4991670;28;20084;-62
2021/05/17 02:23:08;;;;;;;14.40;8.77;;;8.40;91.10;;;;;;4989094;28;20038;-63
2021/05/17 02:25:34;;;;;;;15.27;9.23;;;8.30;91.10;;;;;;4990134;28;20081;-62
2021/05/17 02:28:01;;;;;;;18.33;9.07;;;8.30;91.10;;;;;;4989755;28;20053;-63
2021/05/17 02:30:27;;;;;;;15.13;8.63;;;8.30;91.20;;;;;;4991546;28;20125;-63
2021/05/17 02:32:54;;;;;;;14.80;8.67;;;8.30;91.20;;;;;;4990864;28;20522;-62
2021/05/17 02:35:36;;;;;;;14.70;8.10;;;8.30;91.30;;;;;;4975583;28;20144;-62
2021/05/17 02:38:02;;;;;;;13.57;8.27;;;8.20;91.30;;;;;;4991270;28;20080;-62
2021/05/17 02:40:30;;;;;;;14.40;7.67;;;8.20;91.20;;;;;;4973780;28;20042;-63
2021/05/17 02:43:03;;;;;;;14.13;7.70;;;8.20;91.20;;;;;;4989734;28;20043;-62
2021/05/17 02:45:39;;;;;;;14.83;8.27;;;8.10;91.20;;;;;;4989677;28;20038;-62
2021/05/17 02:48:07;;;;;;;14.30;8.80;;;8.10;91.20;;;;;;4991315;28;20096;-62
2021/05/17 02:50:38;;;;;;;14.43;8.17;;;8.00;91.30;;;;;;4990193;28;20542;-62
2021/05/17 02:53:22;;;;;;;14.93;8.70;;;8.00;91.20;;;;;;4990143;28;20084;-62
2021/05/17 02:55:49;;;;;;;15.23;8.00;;;7.90;91.30;;;;;;4989565;28;20125;-62
2021/05/17 02:58:18;;;;;;;13.73;8.07;;;7.90;91.40;;;;;;4990087;28;20035;-63
2021/05/17 03:00:50;;;;;;;16.47;9.03;;;7.90;91.40;;;;;;4989794;28;20038;-62
2021/05/17 03:03:17;;;;;;;12.73;7.40;;;8.00;91.40;;;;;;4988703;28;20071;-62
2021/05/17 03:06:06;;;;;;;14.97;8.20;;;7.80;91.40;;;;;;4989565;28;20116;-62
2021/05/17 03:08:43;;;;;;;15.35;8.52;;;7.80;91.40;;;;;;4994824;28;20410;-62
2021/05/17 03:11:14;;;;;;;14.90;8.13;;;7.70;91.40;;;;;;4993062;28;20431;-62
2021/05/17 03:13:42;;;;;;;16.70;8.10;;;7.70;91.50;;;;;;4994204;28;20503;-62
2021/05/17 03:16:08;;;;;;;14.97;8.83;;;7.70;91.40;;;;;;4992874;28;20117;-62
2021/05/17 03:18:36;;;;;;;13.93;8.10;;;7.70;91.40;;;;;;4994588;28;20081;-62
2021/05/17 03:21:02;;;;;;;15.30;8.43;;;7.60;91.50;;;;;;4995137;28;20030;-62
2021/05/17 03:23:28;;;;;;;15.37;8.57;;;7.60;91.50;;;;;;4993524;28;20041;-62
2021/05/17 03:25:54;;;;;;;15.73;8.63;;;7.60;91.70;;;;;;4994449;28;20038;-62
2021/05/17 03:28:20;;;;;;;14.50;8.13;;;7.60;91.70;;;;;;4993829;28;20046;-63
2021/05/17 03:30:46;;;;;;;14.33;8.30;;;7.60;91.60;;;;;;4994346;28;20041;-62
2021/05/17 03:33:11;;;;;;;15.90;7.80;;;7.60;91.70;;;;;;4993783;28;20031;-62
2021/05/17 03:35:37;;;;;;;15.70;8.23;;;7.60;91.60;;;;;;4993905;28;20038;-62
2021/05/17 03:38:02;;;;;;;13.73;7.80;;;7.60;91.60;;;;;;4993030;28;20495;-62
2021/05/17 03:40:28;;;;;;;12.60;7.57;;;7.60;91.60;;;;;;4994271;28;20060;-62
2021/05/17 03:42:54;;;;;;;12.03;6.70;;;7.60;91.50;;;;;;4991756;28;20495;-62
2021/05/17 03:45:19;;;;;;;13.00;7.33;;;7.60;91.60;;;;;;4994029;28;20062;-62
2021/05/17 03:47:45;;;;;;;12.57;7.47;;;7.50;91.50;;;;;;4993235;28;20036;-62
2021/05/17 03:50:13;;;;;;;12.27;7.83;;;7.50;91.60;;;;;;4994222;28;20399;-62
2021/05/17 03:52:39;;;;;;;13.73;8.50;;;7.50;91.60;;;;;;4992654;28;20142;-62
2021/05/17 03:55:06;;;;;;;14.03;7.80;;;7.50;91.70;;;;;;4991561;28;20422;-62
2021/05/17 03:57:32;;;;;;;15.10;8.50;;;7.50;91.70;;;;;;4992265;28;20050;-62
2021/05/17 03:59:57;;;;;;;15.87;8.50;;;7.50;91.80;;;;;;4992522;28;20042;-63
2021/05/17 04:02:24;;;;;;;15.00;8.13;;;7.50;91.80;;;;;;4991370;28;20050;-63
2021/05/17 04:05:11;;;;;;;14.33;8.27;;;7.50;91.90;;;;;;4990707;28;20057;-63
2021/05/17 04:13:27;;;;;;;14.27;8.20;;;7.60;91.90;;;;;;4992976;28;20507;-63
2021/05/17 04:15:55;;;;;;;12.57;6.60;;;7.60;91.90;;;;;;4992930;28;20034;-62
2021/05/17 04:18:21;;;;;;;12.67;7.00;;;7.70;91.90;;;;;;4992237;28;20293;-62
2021/05/17 04:20:49;;;;;;;13.90;7.30;;;7.70;92.00;;;;;;4993042;28;20373;-63
2021/05/17 04:23:22;;;;;;;12.43;7.53;;;7.80;92.20;;;;;;4992689;28;20053;-62
2021/05/17 04:25:48;;;;;;;11.53;6.63;;;7.90;92.50;;;;;;4992929;28;20113;-63
2021/05/17 04:28:14;;;;;;;11.33;6.73;;;8.20;92.80;;;;;;4992852;28;20487;-63
2021/05/17 04:30:40;;;;;;;11.37;7.03;;;8.40;92.90;;;;;;4991899;28;20088;-63
2021/05/17 04:33:06;;;;;;;11.07;6.73;;;8.60;92.80;;;;;;4991509;28;20053;-63
2021/05/17 04:35:32;;;;;;;12.60;7.70;;;8.80;92.70;;;;;;4992570;28;20035;-62
2021/05/17 04:37:58;;;;;;;13.30;7.80;;;9.00;92.80;;;;;;4992556;28;20034;-63
2021/05/17 04:40:23;;;;;;;11.33;7.60;;;9.20;92.60;;;;;;4992987;28;20568;-63
2021/05/17 04:42:49;;;;;;;11.97;8.20;;;9.30;92.40;;;;;;4992472;28;20503;-63
2021/05/17 04:45:15;;;;;;;12.30;7.77;;;9.50;92.30;;;;;;4991981;28;20038;-63
2021/05/17 04:47:41;;;;;;;12.07;7.87;;;9.60;92.20;;;;;;4992108;28;20038;-63
2021/05/17 04:50:07;;;;;;;12.82;8.00;;;9.70;92.10;;;;;;4992107;28;20038;-63
2021/05/17 04:52:34;;;;;;;14.47;8.87;;;9.70;92.00;;;;;;4992685;28;20042;-62
2021/05/17 04:55:00;;;;;;;13.98;7.95;;;9.80;92.00;;;;;;4991597;28;20088;-62
2021/05/17 04:57:25;;;;;;;12.07;7.68;;;9.80;92.10;;;;;;4992112;28;20430;-62
2021/05/17 04:59:51;;;;;;;13.07;8.00;;;9.90;92.10;;;;;;4991101;28;20034;-63
2021/05/17 05:02:17;;;;;;;13.25;7.88;;;10.10;92.20;;;;;;4989190;28;20033;-63
2021/05/17 05:04:42;;;;;;;11.23;7.55;;;10.20;92.20;;;;;;4989140;28;20151;-63
2021/05/17 05:07:08;;;;;;;11.90;7.30;;;10.30;92.10;;;;;;4992055;28;20034;-63
2021/05/17 05:09:34;;;;;;;12.50;7.18;;;10.40;92.00;;;;;;4991037;28;20507;-64
2021/05/17 05:12:00;;;;;;;11.63;6.95;;;10.40;91.80;;;;;;4992203;28;20034;-63
2021/05/17 05:14:26;;;;;;;10.23;6.95;;;10.50;91.90;;;;;;4991756;28;20034;-63
2021/05/17 05:16:52;;;;;;;12.15;7.50;;;10.60;92.10;;;;;;4991985;28;20026;-63
2021/05/17 05:19:17;;;;;;;12.15;7.93;;;10.90;92.30;;;;;;4992560;28;20491;-63
2021/05/17 05:21:43;;;;;;;11.75;7.35;;;11.10;92.40;;;;;;4992366;28;20554;-63
2021/05/17 05:24:09;;;;;;;11.18;7.05;;;11.30;92.30;;;;;;4990760;28;20045;-63
2021/05/17 05:30:08;;;;;;;10.63;6.22;;;11.80;92.50;;;;;;4990910;28;20039;-63
2021/05/17 05:32:21;;;;;;;10.85;6.40;;;12.10;92.10;;;;;;4983140;28;20105;-64
2021/05/17 05:34:48;;;;;;;;;;;12.30;91.80;;;;;;4991819;28;20414;-61
2021/05/17 05:37:15;;;;;;;9.82;6.03;;;12.50;91.70;;;;;;4992024;28;19910;-61
2021/05/17 05:39:42;;;;;;;9.20;5.90;;;12.70;91.80;;;;;;4992001;28;20068;-62
2021/05/17 05:42:08;;;;;;;10.30;5.75;;;13.00;91.90;;;;;;4991535;28;20125;-62
2021/05/17 05:44:45;;;;;;;12.00;5.85;;;13.30;91.70;;;;;;4991246;28;20113;-62
2021/05/17 05:47:15;;;;;;;10.02;5.22;;;13.50;91.40;;;;;;4991428;28;20454;-62
2021/05/17 05:49:46;;;;;;;10.20;5.82;;;13.70;91.10;;;;;;5006876;28;20034;-62
2021/05/17 05:52:13;;;;;;;11.25;5.78;;;13.80;90.60;;;;;;4991551;28;20399;-62
2021/05/17 05:54:39;;;;;;;13.43;6.13;;;13.70;90.30;;;;;;4991070;28;20031;-61
2021/05/17 05:57:07;;;;;;;13.57;6.38;;;13.70;89.50;;;;;;4991585;28;20030;-61
2021/05/17 05:59:33;;;;;;;10.50;5.65;;;13.60;89.60;;;;;;4990158;28;20034;-62
2021/05/17 06:01:59;;;;;;;11.55;6.45;;;13.70;89.90;;;;;;4991761;28;20101;-61
2021/05/17 06:04:24;;;;;;;9.90;6.18;;;13.70;89.40;;;;;;4990664;28;20498;-62
2021/05/17 06:06:50;;;;;;;9.15;6.20;;;13.80;89.30;;;;;;4991651;28;20034;-61
2021/05/17 06:09:16;;;;;;;11.07;6.47;;;13.80;89.00;;;;;;4990252;28;20402;-61
2021/05/17 06:11:42;;;;;;;10.65;6.22;;;13.80;88.20;;;;;;4990072;28;20101;-61
2021/05/17 06:14:09;;;;;;;14.05;6.95;;;13.80;87.30;;;;;;4991205;28;20395;-61
2021/05/17 06:16:35;;;;;;;10.55;6.88;;;13.60;86.80;;;;;;4989891;28;20046;-62
2021/05/17 06:19:01;;;;;;;10.77;6.40;;;13.60;86.80;;;;;;4991681;28;20057;-61
2021/05/17 06:21:28;;;;;;;13.15;7.38;;;13.40;86.80;;;;;;4990531;28;20034;-61
2021/05/17 06:23:56;;;;;;;11.65;7.20;;;13.40;87.10;;;;;;4990463;28;20053;-61
2021/05/17 06:26:24;;;;;;;10.85;6.82;;;13.40;86.70;;;;;;4991364;28;20458;-61
2021/05/17 06:28:50;;;;;;;11.38;7.35;;;13.30;86.60;;;;;;4991158;28;20042;-61
2021/05/17 06:31:16;;;;;;;11.15;7.20;;;13.40;86.90;;;;;;4991595;28;20110;-64
2021/05/17 06:33:43;;;;;;;11.00;7.40;;;13.50;87.20;;;;;;4989523;28;20066;-61
2021/05/17 06:36:12;;;;;;;10.95;6.63;;;13.70;88.30;;;;;;4991177;28;20121;-62
2021/05/17 06:38:41;;;;;;;12.07;7.07;;;14.10;88.10;;;;;;4991464;28;20100;-62
2021/05/17 06:41:08;;;;;;;12.93;7.10;;;14.60;88.40;;;;;;4990966;28;20046;-63
2021/05/17 06:43:37;;;;;;;11.60;6.65;;;15.00;87.80;;;;;;4994512;28;20046;-62
2021/05/17 06:46:07;;;;;;;15.20;7.10;;;15.20;86.00;;;;;;5010121;28;20050;-62
2021/05/17 06:48:41;;;;;;;11.43;6.97;;;15.10;83.10;;;;;;4994783;28;20038;-62
2021/05/17 06:51:11;;;;;;;11.65;6.75;;;14.90;82.90;;;;;;4995299;28;20134;-64
2021/05/17 06:53:38;;;;;;;13.20;6.90;;;14.90;83.70;;;;;;4994007;28;20042;-62
2021/05/17 06:56:07;;;;;;;10.57;6.68;;;15.30;86.80;;;;;;4994822;28;20038;-62
2021/05/17 06:59:18;;;;;;;10.73;6.43;;;16.40;89.20;;;;;;4994419;28;20499;-62
2021/05/17 07:01:26;;;;;;;10.82;5.55;;;18.20;90.30;;;;;;4989186;28;20487;-62
2021/05/17 07:03:53;;;;;;;10.68;5.47;;;20.50;88.20;;;;;;4992673;28;20047;-62
2021/05/17 07:06:23;;;;;;;11.15;5.70;;;21.30;80.80;;;;;;4994836;28;20082;-62
2021/05/17 07:14:08;;;;;;;10.63;5.73;;;20.60;71.20;;;;;;4993810;28;20030;-62
2021/05/17 07:16:34;;;;;;;8.98;5.40;;;20.30;69.60;;;;;;4994571;28;20678;-62
2021/05/17 07:19:00;;;;;;;8.77;5.03;;;20.10;69.80;;;;;;5009170;28;20054;-62
2021/05/17 07:24:11;;;;;;;12.05;5.40;;;21.30;71.50;;;;;;4993322;28;20050;-63
2021/05/17 07:26:36;;;;;;;7.95;4.60;;;23.00;71.40;;;;;;4992969;28;20192;-63
2021/05/17 07:29:05;;;;;;;8.85;4.93;;;25.10;69.60;;;;;;4993211;28;20043;-63
2021/05/17 07:31:31;;;;;;;9.90;4.45;;;26.50;64.20;;;;;;4992500;28;20058;-63
2021/05/17 07:33:57;;;;;;;8.02;4.15;;;27.50;60.10;;;;;;4993715;28;20077;-63
2021/05/17 07:36:23;;;;;;;9.13;4.35;;;27.50;56.00;;;;;;4993695;28;20046;-64
2021/05/17 07:38:49;;;;;;;7.72;4.18;;;27.20;53.40;;;;;;4994120;28;20380;-63
2021/05/17 07:41:15;;;;;;;7.70;4.50;;;26.90;51.90;;;;;;4994247;28;20045;-63
2021/05/17 07:43:41;;;;;;;8.90;4.20;;;27.10;51.20;;;;;;4992306;28;20062;-63
2021/05/17 07:46:07;;;;;;;6.75;3.60;;;26.60;48.80;;;;;;4994001;28;20038;-63
2021/05/17 07:48:34;;;;;;;7.75;3.60;;;26.30;49.70;;;;;;4993698;28;20057;-64
2021/05/17 07:51:00;;;;;;;7.75;4.10;;;27.50;51.40;;;;;;4993843;28;20038;-63
2021/05/17 07:53:26;;;;;;;7.82;3.67;;;29.60;49.70;;;;;;4993153;28;20096;-63
2021/05/17 07:55:53;;;;;;;7.00;3.15;;;30.00;45.10;;;;;;4992291;28;20042;-64
2021/05/17 07:58:19;;;;;;;9.23;3.30;;;30.20;44.40;;;;;;4993660;28;20042;-64
2021/05/17 08:00:45;;;;;;;7.43;3.13;;;31.40;43.80;;;;;;4993538;28;20085;-63
2021/05/17 08:03:11;;;;;;;6.63;3.00;;;32.20;41.20;;;;;;4991442;28;20038;-64
2021/05/17 08:05:37;;;;;;;5.43;2.85;;;32.70;39.90;;;;;;5008730;28;20106;-60
2021/05/17 08:08:03;;;;;;;7.00;2.95;;;33.60;39.00;;;;;;4993220;28;20502;-61
2021/05/17 08:10:29;;;;;;;6.10;2.50;;;34.90;37.10;;;;;;4993509;28;20037;-61
2021/05/17 08:12:55;;;;;;;7.85;2.92;;;35.70;36.10;;;;;;4992854;28;20165;-61
2021/05/17 08:15:22;;;;;;;6.35;2.88;;;36.70;35.10;;;;;;4992960;28;20032;-61
2021/05/17 08:17:48;;;;;;;6.03;2.78;;;37.90;33.50;;;;;;4992865;28;20502;-61
2021/05/17 08:20:14;;;;;;;6.05;2.90;;;38.60;31.80;;;;;;4992740;28;20352;-62
2021/05/17 08:22:40;;;;;;;6.95;2.80;;;39.20;30.70;;;;;;4993258;28;20094;-61
2021/05/17 08:25:07;;;;;;;5.00;2.45;;;39.70;29.50;;;;;;4992827;28;20034;-61
2021/05/17 08:27:34;;;;;;;6.10;2.67;;;39.90;28.90;;;;;;4992559;28;20068;-61
2021/05/17 08:30:00;;;;;;;7.60;2.90;;;39.30;27.80;;;;;;4993176;28;20040;-61
2021/05/17 08:32:26;;;;;;;7.93;3.17;;;37.20;26.90;;;;;;4991268;28;20403;-61
2021/05/17 08:34:52;;;;;;;7.65;2.80;;;34.00;27.00;;;;;;5007678;28;20038;-61
2021/05/17 08:37:18;;;;;;;6.82;3.15;;;31.20;28.40;;;;;;4992721;28;20034;-63
2021/05/17 08:39:44;;;;;;;8.52;3.20;;;29.50;30.00;;;;;;4992588;28;20030;-63
2021/05/17 08:42:11;;;;;;;8.82;3.10;;;28.30;30.70;;;;;;4991855;28;20454;-71
2021/05/17 08:44:37;;;;;;;7.30;3.03;;;27.00;31.40;;;;;;4991916;28;20474;-67
2021/05/17 08:47:03;;;;;;;6.72;2.85;;;25.80;32.20;;;;;;4992665;28;20110;-72
2021/05/17 08:49:30;;;;;;;7.57;2.60;;;24.60;33.90;;;;;;4992710;28;20054;-70
2021/05/17 08:51:56;;;;;;;6.90;2.60;;;23.60;34.60;;;;;;4992382;28;20138;-70
2021/05/17 08:54:22;;;;;;;6.10;2.33;;;23.00;35.90;;;;;;4990955;28;20058;-71
2021/05/17 08:56:48;;;;;;;6.63;2.30;;;22.50;36.80;;;;;;4992625;28;20121;-71
2021/05/17 08:59:16;;;;;;;6.88;2.08;;;22.10;37.40;;;;;;4992145;28;20041;-70
2021/05/17 09:01:43;;;;;;;9.43;2.20;;;22.20;39.80;;;;;;4992636;28;20057;-70
2021/05/17 09:04:15;;;;;;;6.00;1.90;;;22.80;39.30;;;;;;4990913;28;20054;-70
2021/05/17 09:06:55;;;;;;;5.13;1.67;;;23.60;39.90;;;;;;4992460;28;20042;-70
2021/05/17 09:09:28;;;;;;;;;;;24.50;38.50;;;;;;4992345;28;20514;-69
2021/05/17 09:12:05;;;;;;;4.82;1.63;;;24.80;37.70;;;;;;4992075;28;19918;-71
2021/05/17 09:14:32;;;;;;;4.63;1.63;;;24.80;35.90;;;;;;4991578;28;20058;-70
2021/05/17 09:17:03;;;;;;;6.40;2.22;;;24.10;35.40;;;;;;4992220;28;20034;-70
2021/05/17 09:19:32;;;;;;;5.03;1.67;;;23.50;35.90;;;;;;4974539;28;20037;-70
2021/05/17 09:22:02;;;;;;;4.38;1.67;;;22.80;36.40;;;;;;4992278;28;20474;-70
2021/05/17 09:24:34;;;;;;;7.05;1.92;;;22.30;37.30;;;;;;4991136;28;20046;-69
2021/05/17 09:27:00;;;;;;;5.88;1.92;;;22.70;39.10;;;;;;4991947;28;20187;-69
2021/05/17 09:29:27;;;;;;;4.90;1.40;;;25.10;41.50;;;;;;4990870;28;20065;-71
2021/05/17 09:31:55;;;;;;;5.78;1.70;;;28.80;39.70;;;;;;4991867;28;20038;-70
2021/05/17 09:34:34;;;;;;;4.15;1.60;;;31.80;36.40;;;;;;4991510;28;20038;-71
2021/05/17 09:37:10;;;;;;;7.60;2.10;;;31.50;30.90;;;;;;4991338;28;20533;-71
2021/05/17 09:39:37;;;;;;;5.60;1.90;;;30.40;30.30;;;;;;4990645;28;20030;-70
2021/05/17 09:42:05;;;;;;;5.05;1.80;;;30.20;30.90;;;;;;4990536;28;20042;-71
2021/05/17 09:44:31;;;;;;;4.53;1.50;;;29.80;30.20;;;;;;4991353;28;20049;-72
2021/05/17 09:47:17;;;;;;;5.82;1.73;;;28.80;29.50;;;;;;4990995;28;20049;-69
2021/05/17 09:49:45;;;;;;;6.65;1.60;;;29.20;32.20;;;;;;5006794;28;20076;-70
2021/05/17 09:52:25;;;;;;;6.95;1.52;;;31.00;32.20;;;;;;4991317;28;20451;-70
2021/05/17 09:54:55;;;;;;;4.72;1.50;;;30.80;29.90;;;;;;4989838;28;20038;-70
2021/05/17 09:57:30;;;;;;;4.57;1.55;;;29.80;29.30;;;;;;4991470;28;20129;-70
2021/05/17 10:00:20;;;;;;;5.53;1.70;;;28.60;29.30;;;;;;4991484;28;20031;-70
2021/05/17 10:02:51;;;;;;;5.75;1.77;;;27.50;29.60;;;;;;4996667;28;20042;-70
2021/05/17 10:05:34;;;;;;;4.07;1.73;;;26.30;30.00;;;;;;4991582;28;20042;-71
2021/05/17 10:08:03;;;;;;;3.70;1.55;;;25.30;30.80;;;;;;4991175;28;20088;-70
2021/05/17 10:10:30;;;;;;;5.68;2.10;;;24.50;31.50;;;;;;4991594;28;20038;-70
2021/05/17 10:12:58;;;;;;;5.35;1.55;;;23.80;32.60;;;;;;4990735;28;20057;-70
2021/05/17 10:15:28;;;;;;;3.83;1.70;;;23.40;33.30;;;;;;4991427;28;20038;-71
2021/05/17 10:17:54;;;;;;;5.65;2.15;;;23.10;33.90;;;;;;4994121;28;20035;-70
2021/05/17 10:20:23;;;;;;;5.32;1.98;;;22.70;34.50;;;;;;4995618;28;20046;-70
2021/05/17 10:22:53;;;;;;;5.32;2.25;;;22.30;34.80;;;;;;4994971;28;20496;-71
2021/05/17 10:25:28;;;;;;;6.15;2.10;;;21.80;35.70;;;;;;5010104;28;20392;-69
2021/05/17 10:27:57;;;;;;;6.25;2.03;;;21.40;36.50;;;;;;4995336;28;20042;-70
2021/05/17 10:30:34;;;;;;;6.20;2.20;;;21.20;37.40;;;;;;4995040;28;20085;-71
2021/05/17 10:33:09;;;;;;;6.25;2.15;;;21.10;37.70;;;;;;4994886;28;20042;-71
2021/05/17 10:35:41;;;;;;;6.97;2.33;;;21.10;38.30;;;;;;4994838;28;20038;-71
2021/05/17 10:38:43;;;;;;;7.47;2.38;;;21.10;38.60;;;;;;4995176;28;20096;-71
2021/05/17 10:46:53;;;;;;;5.30;1.85;;;21.60;40.60;;;;;;4995205;28;20038;-71
2021/05/17 10:49:33;;;;;;;6.05;2.00;;;22.80;39.50;;;;;;4993768;28;20042;-70
2021/05/17 10:52:10;;;;;;;;;;;23.60;39.30;;;;;;4995506;28;20030;-70
2021/05/17 10:54:41;;;;;;;6.78;1.83;;;25.20;38.60;;;;;;4994298;28;19921;-70
2021/05/17 10:57:30;;;;;;;6.30;1.90;;;26.00;36.50;;;;;;4994782;28;20034;-70
2021/05/17 11:02:43;;;;;;;5.30;1.42;;;29.30;34.70;;;;;;4994745;28;20321;-70
2021/05/17 11:05:19;;;;;;;5.63;1.60;;;30.20;32.80;;;;;;4976616;28;20105;-72
2021/05/17 11:07:48;;;;;;;6.03;1.70;;;30.30;31.70;;;;;;4994751;28;20495;-71
2021/05/17 11:10:36;;;;;;;5.63;1.70;;;29.70;30.20;;;;;;4993241;28;20038;-70
2021/05/17 11:13:10;;;;;;;6.18;1.50;;;28.40;29.90;;;;;;4992081;28;20038;-72
2021/05/17 11:15:42;;;;;;;4.72;1.60;;;26.90;30.00;;;;;;4994725;28;20042;-70
2021/05/17 11:18:08;;;;;;;5.80;1.80;;;25.30;30.80;;;;;;4994142;28;20038;-70
2021/05/17 11:20:40;;;;;;;6.20;2.28;;;24.00;31.80;;;;;;4994327;28;20403;-70
2021/05/17 11:23:23;;;;;;;7.45;1.67;;;22.90;33.20;;;;;;4993859;28;20054;-70
2021/05/17 11:28:37;;;;;;;6.93;1.70;;;20.90;35.70;;;;;;4993374;28;20112;-71
2021/05/17 11:31:14;;;;;;;4.47;1.52;;;20.00;37.00;;;;;;4994304;28;20041;-71
2021/05/17 11:33:55;;;;;;;4.05;1.40;;;19.20;38.50;;;;;;4993363;28;20117;-70
2021/05/17 11:36:27;;;;;;;4.72;1.60;;;18.50;40.20;;;;;;4994004;28;20061;-71
2021/05/17 11:39:11;;;;;;;4.53;1.70;;;18.00;41.60;;;;;;4993670;28;20030;-71
2021/05/17 11:41:41;;;;;;;4.60;1.77;;;17.60;43.10;;;;;;4992023;28;20035;-71
2021/05/17 11:44:13;;;;;;;6.07;2.22;;;17.30;44.10;;;;;;4991974;28;20506;-71
2021/05/17 11:46:49;;;;;;;5.88;2.00;;;17.10;45.30;;;;;;4992768;28;20055;-70
2021/05/17 11:49:17;;;;;;;6.30;2.25;;;17.00;46.90;;;;;;4993518;28;20087;-71
2021/05/17 11:51:51;;;;;;;6.30;2.38;;;16.90;48.60;;;;;;4994101;28;20273;-71
2021/05/17 11:54:19;;;;;;;6.38;2.45;;;17.00;50.10;;;;;;5008111;28;20065;-71
2021/05/17 11:56:50;;;;;;;6.78;2.28;;;17.30;51.10;;;;;;4992363;28;20038;-71
2021/05/17 11:59:19;;;;;;;6.57;2.42;;;17.80;51.60;;;;;;5008309;28;20030;-70
2021/05/17 12:01:48;;;;;;;6.97;2.20;;;18.30;51.90;;;;;;4993792;28;20069;-63
2021/05/17 12:04:16;;;;;;;6.25;2.25;;;18.90;52.40;;;;;;4991676;28;20042;-63
2021/05/17 12:07:03;;;;;;;4.85;1.90;;;19.70;52.40;;;;;;4991825;28;20036;-63
2021/05/17 12:09:48;;;;;;;6.75;2.40;;;20.40;51.50;;;;;;4993105;28;20129;-64
2021/05/17 12:12:21;;;;;;;6.82;2.25;;;21.20;50.20;;;;;;4992442;28;20066;-62
2021/05/17 12:14:51;;;;;;;4.05;2.15;;;21.80;49.50;;;;;;4992814;28;20121;-64
2021/05/17 12:17:21;;;;;;;6.07;2.60;;;22.60;48.90;;;;;;4991909;28;20438;-65
2021/05/17 12:19:52;;;;;;;6.60;2.65;;;22.90;47.90;;;;;;4975483;28;20117;-64
2021/05/17 12:22:32;;;;;;;5.90;2.20;;;23.70;47.80;;;;;;5004749;23;20446;-73
2021/05/17 12:25:01;;;;;;;5.00;2.03;;;24.20;46.50;;;;;;4972835;28;20399;-72
2021/05/17 12:27:28;;;;;;;5.95;2.00;;;23.70;44.50;;;;;;4956429;28;20038;-73
2021/05/17 12:30:17;;;;;;;4.55;1.98;;;23.00;44.10;;;;;;4973251;28;20046;-72
2021/05/17 12:33:01;;;;;;;5.43;2.00;;;22.20;44.70;;;;;;4972373;28;20050;-73
2021/05/17 12:35:32;;;;;;;2.72;1.48;;;21.50;45.20;;;;;;4992841;28;20038;-72
2021/05/17 12:38:12;;;;;;;5.03;2.00;;;20.70;45.90;;;;;;4991427;28;20085;-73
2021/05/17 12:40:42;;;;;;;4.97;1.77;;;20.10;47.00;;;;;;5006648;28;20125;-72
2021/05/17 12:43:18;;;;;;;3.17;1.55;;;19.80;48.10;;;;;;4981415;28;20042;-73
2021/05/17 12:45:47;;;;;;;3.75;1.55;;;19.60;48.70;;;;;;4980532;28;20026;-72
2021/05/17 12:48:31;;;;;;;7.00;2.17;;;19.60;49.10;;;;;;5005015;28;20435;-72
2021/05/17 12:51:00;;;;;;;6.85;1.90;;;19.60;49.70;;;;;;4990948;28;20121;-72
2021/05/17 12:53:28;;;;;;;4.45;1.83;;;20.00;50.50;;;;;;4984105;28;20042;-71
2021/05/17 12:55:59;;;;;;;4.70;1.67;;;20.70;50.00;;;;;;4991479;28;20100;-72
2021/05/17 12:58:41;;;;;;;4.82;1.40;;;21.60;49.10;;;;;;4990659;28;20035;-72
2021/05/17 13:01:12;;;;;;;3.50;1.10;;;22.30;47.30;;;;;;4991430;28;20502;-73
2021/05/17 13:03:52;;;;;;;3.65;1.38;;;22.70;45.40;;;;;;5005363;28;20046;-74
2021/05/17 13:06:22;;;;;;;3.80;1.40;;;22.60;45.20;;;;;;4991828;28;20396;-73
2021/05/17 13:09:01;;;;;;;4.57;1.30;;;22.40;44.10;;;;;;4988942;28;20085;-70
2021/05/17 13:11:33;;;;;;;4.60;1.40;;;22.10;44.60;;;;;;4988938;28;20399;-71
2021/05/17 13:14:12;;;;;;;5.22;1.70;;;21.80;44.70;;;;;;4990457;28;20550;-73
2021/05/17 13:16:43;;;;;;;5.15;1.95;;;21.60;44.80;;;;;;4988126;28;20030;-73
2021/05/17 13:22:32;;;;;;;5.22;1.60;;;20.70;45.20;;;;;;5004909;28;20038;-72
2021/05/17 13:30:38;;;;;;;5.07;1.65;;;20.20;46.70;;;;;;4982977;28;20030;-72
2021/05/17 13:33:05;;;;;;;3.67;1.50;;;20.30;47.20;;;;;;5004967;28;20042;-72
2021/05/17 13:35:31;;;;;;;5.45;1.60;;;20.40;47.50;;;;;;4990595;28;20038;-73
2021/05/17 13:37:57;;;;;;;4.13;1.40;;;20.50;47.80;;;;;;4991030;28;20486;-73